sensor_id;sensor_type;location;lat;lon;timestamp;pressure;altitude;pressure_sealevel;temperature;humidity
31346;BME280;21711;49.708;18.568;2023-08-06T00:00:13;96167.69;;;17.62;100.00
31346;BME280;21711;49.708;18.568;2023-08-06T00:02:42;96166.72;;;17.54;100.00
31346;BME280;21711;49.708;18.568;2023-08-06T00:05:09;96160.38;;;17.59;100.00
31346;BME280;21711;49.708;18.568;2023-08-06T00:07:37;96146.63;;;17.60;100.00
31346;BME280;21711;49.708;18.568;2023-08-06T00:10:05;96127.59;;;17.62;100.00
31346;BME280;21711;49.708;18.568;2023-08-06T00:12:32;96107.25;;;17.57;100.00
31346;BME280;21711;49.708;18.568;2023-08-06T00:15:00;96106.31;;;17.50;100.00
31346;BME280;21711;49.708;18.568;2023-08-06T00:17:27;96097.25;;;17.54;100.00
31346;BME280;21711;49.708;18.568;2023-08-06T00:19:54;96104.50;;;17.54;100.00
31346;BME280;21711;49.708;18.568;2023-08-06T00:22:22;96104.25;;;17.43;100.00
31346;BME280;21711;49.708;18.568;2023-08-06T00:24:49;96102.00;;;17.29;100.00
31346;BME280;21711;49.708;18.568;2023-08-06T00:27:17;96100.78;;;17.26;100.00
31346;BME280;21711;49.708;18.568;2023-08-06T00:29:44;96092.78;;;17.26;100.00
31346;BME280;21711;49.708;18.568;2023-08-06T00:32:11;96093.47;;;17.23;100.00
31346;BME280;21711;49.708;18.568;2023-08-06T00:34:39;96088.03;;;17.19;100.00
31346;BME280;21711;49.708;18.568;2023-08-06T00:37:07;96085.28;;;17.16;100.00
31346;BME280;21711;49.708;18.568;2023-08-06T00:39:34;96084.88;;;17.14;100.00
31346;BME280;21711;49.708;18.568;2023-08-06T00:42:01;96084.75;;;17.10;100.00
31346;BME280;21711;49.708;18.568;2023-08-06T00:44:29;96078.06;;;17.16;100.00
31346;BME280;21711;49.708;18.568;2023-08-06T00:46:56;96079.16;;;17.15;100.00
31346;BME280;21711;49.708;18.568;2023-08-06T00:49:24;96060.81;;;17.14;100.00
31346;BME280;21711;49.708;18.568;2023-08-06T00:51:52;96048.75;;;17.20;100.00
31346;BME280;21711;49.708;18.568;2023-08-06T00:54:20;96047.81;;;17.28;100.00
31346;BME280;21711;49.708;18.568;2023-08-06T00:56:47;96039.28;;;17.22;100.00
31346;BME280;21711;49.708;18.568;2023-08-06T00:59:15;96037.38;;;17.23;100.00
31346;BME280;21711;49.708;18.568;2023-08-06T01:01:43;96027.03;;;17.21;100.00
31346;BME280;21711;49.708;18.568;2023-08-06T01:04:12;96020.50;;;17.19;100.00
31346;BME280;21711;49.708;18.568;2023-08-06T01:06:57;96013.59;;;17.18;100.00
31346;BME280;21711;49.708;18.568;2023-08-06T01:10:04;96001.94;;;17.26;100.00
31346;BME280;21711;49.708;18.568;2023-08-06T01:15:32;95967.94;;;17.23;100.00
31346;BME280;21711;49.708;18.568;2023-08-06T01:18:01;95961.81;;;17.22;100.00
31346;BME280;21711;49.708;18.568;2023-08-06T01:20:30;95957.59;;;17.21;100.00
31346;BME280;21711;49.708;18.568;2023-08-06T01:22:58;95944.06;;;17.14;100.00
31346;BME280;21711;49.708;18.568;2023-08-06T01:28:57;95930.72;;;17.14;100.00
31346;BME280;21711;49.708;18.568;2023-08-06T01:31:38;95928.84;;;17.15;100.00
31346;BME280;21711;49.708;18.568;2023-08-06T01:34:10;95926.44;;;17.09;100.00
31346;BME280;21711;49.708;18.568;2023-08-06T01:36:42;95902.53;;;17.17;100.00
31346;BME280;21711;49.708;18.568;2023-08-06T01:39:09;95886.25;;;17.22;100.00
31346;BME280;21711;49.708;18.568;2023-08-06T01:41:37;95886.09;;;17.15;100.00
31346;BME280;21711;49.708;18.568;2023-08-06T01:44:04;95889.91;;;17.14;100.00
31346;BME280;21711;49.708;18.568;2023-08-06T01:46:32;95893.69;;;17.13;100.00
31346;BME280;21711;49.708;18.568;2023-08-06T01:48:59;95882.56;;;17.11;100.00
31346;BME280;21711;49.708;18.568;2023-08-06T01:51:26;95884.97;;;17.16;100.00
31346;BME280;21711;49.708;18.568;2023-08-06T01:53:54;95898.66;;;17.14;100.00
31346;BME280;21711;49.708;18.568;2023-08-06T01:56:21;95909.69;;;17.13;100.00
31346;BME280;21711;49.708;18.568;2023-08-06T01:58:48;95882.66;;;17.14;100.00
31346;BME280;21711;49.708;18.568;2023-08-06T02:01:17;95881.63;;;17.19;100.00
31346;BME280;21711;49.708;18.568;2023-08-06T02:03:44;95901.91;;;17.24;100.00
31346;BME280;21711;49.708;18.568;2023-08-06T02:06:12;95903.25;;;17.14;100.00
31346;BME280;21711;49.708;18.568;2023-08-06T02:08:39;95891.84;;;17.17;100.00
31346;BME280;21711;49.708;18.568;2023-08-06T02:11:07;95902.63;;;17.20;100.00
31346;BME280;21711;49.708;18.568;2023-08-06T02:13:34;95897.44;;;17.28;100.00
31346;BME280;21711;49.708;18.568;2023-08-06T02:16:02;95888.63;;;17.27;100.00
31346;BME280;21711;49.708;18.568;2023-08-06T02:18:29;95885.72;;;17.32;100.00
31346;BME280;21711;49.708;18.568;2023-08-06T02:20:58;95887.25;;;17.33;100.00
31346;BME280;21711;49.708;18.568;2023-08-06T02:23:26;95877.94;;;17.27;100.00
31346;BME280;21711;49.708;18.568;2023-08-06T02:26:02;95889.75;;;17.26;100.00
31346;BME280;21711;49.708;18.568;2023-08-06T02:28:31;95881.47;;;17.31;100.00
31346;BME280;21711;49.708;18.568;2023-08-06T02:30:58;95877.31;;;17.34;100.00
31346;BME280;21711;49.708;18.568;2023-08-06T02:33:26;95876.75;;;17.25;100.00
31346;BME280;21711;49.708;18.568;2023-08-06T02:36:02;95875.22;;;17.24;100.00
31346;BME280;21711;49.708;18.568;2023-08-06T02:38:33;95881.75;;;17.26;100.00
31346;BME280;21711;49.708;18.568;2023-08-06T02:41:05;95884.00;;;17.24;100.00
31346;BME280;21711;49.708;18.568;2023-08-06T02:43:32;95879.09;;;17.26;100.00
31346;BME280;21711;49.708;18.568;2023-08-06T02:46:00;95877.03;;;17.19;100.00
31346;BME280;21711;49.708;18.568;2023-08-06T02:48:28;95873.94;;;17.17;100.00
31346;BME280;21711;49.708;18.568;2023-08-06T02:50:59;95871.91;;;17.11;100.00
31346;BME280;21711;49.708;18.568;2023-08-06T02:53:29;95875.84;;;17.01;100.00
31346;BME280;21711;49.708;18.568;2023-08-06T02:55:58;95870.78;;;16.95;100.00
31346;BME280;21711;49.708;18.568;2023-08-06T02:58:33;95869.69;;;16.96;100.00
31346;BME280;21711;49.708;18.568;2023-08-06T03:01:14;95876.91;;;16.96;100.00
31346;BME280;21711;49.708;18.568;2023-08-06T03:03:48;95874.06;;;17.05;100.00
31346;BME280;21711;49.708;18.568;2023-08-06T03:06:22;95875.25;;;17.07;100.00
31346;BME280;21711;49.708;18.568;2023-08-06T03:08:52;95872.06;;;17.02;100.00
31346;BME280;21711;49.708;18.568;2023-08-06T03:11:20;95874.56;;;17.11;100.00
31346;BME280;21711;49.708;18.568;2023-08-06T03:13:50;95876.38;;;17.06;100.00
31346;BME280;21711;49.708;18.568;2023-08-06T03:16:17;95868.88;;;17.12;100.00
31346;BME280;21711;49.708;18.568;2023-08-06T03:18:45;95870.94;;;17.19;100.00
31346;BME280;21711;49.708;18.568;2023-08-06T03:21:12;95871.97;;;17.14;100.00
31346;BME280;21711;49.708;18.568;2023-08-06T03:23:40;95879.69;;;17.19;100.00
31346;BME280;21711;49.708;18.568;2023-08-06T03:26:07;95870.59;;;17.20;100.00
31346;BME280;21711;49.708;18.568;2023-08-06T03:28:36;95870.16;;;17.18;100.00
31346;BME280;21711;49.708;18.568;2023-08-06T03:31:04;95869.38;;;17.18;100.00
31346;BME280;21711;49.708;18.568;2023-08-06T03:33:41;95878.16;;;17.18;100.00
31346;BME280;21711;49.708;18.568;2023-08-06T03:36:13;95866.91;;;17.09;100.00
31346;BME280;21711;49.708;18.568;2023-08-06T03:38:42;95856.28;;;17.13;100.00
31346;BME280;21711;49.708;18.568;2023-08-06T03:41:12;95838.44;;;17.17;100.00
31346;BME280;21711;49.708;18.568;2023-08-06T03:43:39;95842.53;;;17.11;100.00
31346;BME280;21711;49.708;18.568;2023-08-06T03:46:11;95844.41;;;17.10;100.00
31346;BME280;21711;49.708;18.568;2023-08-06T03:48:39;95849.13;;;17.17;100.00
31346;BME280;21711;49.708;18.568;2023-08-06T03:51:06;95839.22;;;17.17;100.00
31346;BME280;21711;49.708;18.568;2023-08-06T03:53:35;95841.91;;;17.17;100.00
31346;BME280;21711;49.708;18.568;2023-08-06T03:56:03;95834.22;;;17.16;100.00
31346;BME280;21711;49.708;18.568;2023-08-06T03:58:31;95837.00;;;17.03;100.00
31346;BME280;21711;49.708;18.568;2023-08-06T04:01:03;95828.97;;;17.03;100.00
31346;BME280;21711;49.708;18.568;2023-08-06T04:03:37;95825.66;;;16.90;100.00
31346;BME280;21711;49.708;18.568;2023-08-06T04:06:07;95818.84;;;16.93;100.00
31346;BME280;21711;49.708;18.568;2023-08-06T04:08:36;95815.00;;;16.90;100.00
31346;BME280;21711;49.708;18.568;2023-08-06T04:11:03;95810.59;;;16.82;100.00
31346;BME280;21711;49.708;18.568;2023-08-06T04:13:30;95808.03;;;16.86;100.00
31346;BME280;21711;49.708;18.568;2023-08-06T04:16:04;95818.56;;;16.98;100.00
31346;BME280;21711;49.708;18.568;2023-08-06T04:18:32;95807.94;;;16.82;100.00
31346;BME280;21711;49.708;18.568;2023-08-06T04:21:02;95804.06;;;16.79;100.00
31346;BME280;21711;49.708;18.568;2023-08-06T04:23:29;95798.25;;;16.74;100.00
31346;BME280;21711;49.708;18.568;2023-08-06T04:26:01;95799.34;;;16.73;100.00
31346;BME280;21711;49.708;18.568;2023-08-06T04:28:32;95792.91;;;16.74;100.00
31346;BME280;21711;49.708;18.568;2023-08-06T04:31:00;95792.19;;;16.77;100.00
31346;BME280;21711;49.708;18.568;2023-08-06T04:33:30;95790.44;;;16.85;100.00
31346;BME280;21711;49.708;18.568;2023-08-06T04:36:01;95788.06;;;16.79;100.00
31346;BME280;21711;49.708;18.568;2023-08-06T04:38:28;95790.44;;;16.85;100.00
31346;BME280;21711;49.708;18.568;2023-08-06T04:40:58;95784.81;;;16.70;100.00
31346;BME280;21711;49.708;18.568;2023-08-06T04:43:25;95784.97;;;16.77;100.00
31346;BME280;21711;49.708;18.568;2023-08-06T04:45:54;95778.50;;;16.78;100.00
31346;BME280;21711;49.708;18.568;2023-08-06T04:48:22;95785.91;;;16.85;100.00
31346;BME280;21711;49.708;18.568;2023-08-06T04:50:50;95784.28;;;16.80;100.00
31346;BME280;21711;49.708;18.568;2023-08-06T04:53:18;95791.00;;;16.74;100.00
31346;BME280;21711;49.708;18.568;2023-08-06T04:55:45;95792.56;;;16.75;100.00
31346;BME280;21711;49.708;18.568;2023-08-06T04:58:13;95791.34;;;16.73;100.00
31346;BME280;21711;49.708;18.568;2023-08-06T05:00:40;95784.13;;;16.73;100.00
31346;BME280;21711;49.708;18.568;2023-08-06T05:03:08;95792.91;;;16.74;100.00
31346;BME280;21711;49.708;18.568;2023-08-06T05:05:35;95794.81;;;16.73;100.00
31346;BME280;21711;49.708;18.568;2023-08-06T05:08:03;95789.81;;;16.72;100.00
31346;BME280;21711;49.708;18.568;2023-08-06T05:10:30;95793.72;;;16.58;100.00
31346;BME280;21711;49.708;18.568;2023-08-06T05:12:57;95793.81;;;16.62;100.00
31346;BME280;21711;49.708;18.568;2023-08-06T05:15:25;95790.78;;;16.63;100.00
31346;BME280;21711;49.708;18.568;2023-08-06T05:17:52;95790.88;;;16.67;100.00
31346;BME280;21711;49.708;18.568;2023-08-06T05:20:20;95797.47;;;16.73;100.00
31346;BME280;21711;49.708;18.568;2023-08-06T05:22:48;95793.09;;;16.65;100.00
31346;BME280;21711;49.708;18.568;2023-08-06T05:25:15;95787.34;;;16.63;100.00
31346;BME280;21711;49.708;18.568;2023-08-06T05:27:43;95784.75;;;16.66;100.00
31346;BME280;21711;49.708;18.568;2023-08-06T05:30:10;95788.13;;;16.63;100.00
31346;BME280;21711;49.708;18.568;2023-08-06T05:32:38;95789.50;;;16.57;100.00
31346;BME280;21711;49.708;18.568;2023-08-06T05:35:06;95777.91;;;16.49;100.00
31346;BME280;21711;49.708;18.568;2023-08-06T05:37:33;95779.97;;;16.40;100.00
31346;BME280;21711;49.708;18.568;2023-08-06T05:40:01;95783.69;;;16.35;100.00
31346;BME280;21711;49.708;18.568;2023-08-06T05:42:30;95790.31;;;16.25;100.00
31346;BME280;21711;49.708;18.568;2023-08-06T05:44:58;95791.53;;;16.28;100.00
31346;BME280;21711;49.708;18.568;2023-08-06T05:47:25;95794.25;;;16.32;100.00
31346;BME280;21711;49.708;18.568;2023-08-06T05:49:53;95790.75;;;16.27;100.00
31346;BME280;21711;49.708;18.568;2023-08-06T05:52:20;95794.13;;;16.08;100.00
31346;BME280;21711;49.708;18.568;2023-08-06T05:54:48;95782.25;;;16.06;100.00
31346;BME280;21711;49.708;18.568;2023-08-06T05:57:15;95782.00;;;16.11;100.00
31346;BME280;21711;49.708;18.568;2023-08-06T05:59:43;95771.41;;;15.98;100.00
31346;BME280;21711;49.708;18.568;2023-08-06T06:02:10;95779.97;;;15.91;100.00
31346;BME280;21711;49.708;18.568;2023-08-06T06:04:38;95770.66;;;15.98;100.00
31346;BME280;21711;49.708;18.568;2023-08-06T06:07:05;95771.78;;;15.97;100.00
31346;BME280;21711;49.708;18.568;2023-08-06T06:09:33;95774.78;;;15.95;100.00
31346;BME280;21711;49.708;18.568;2023-08-06T06:12:00;95783.88;;;15.94;100.00
31346;BME280;21711;49.708;18.568;2023-08-06T06:14:27;95777.53;;;15.99;100.00
31346;BME280;21711;49.708;18.568;2023-08-06T06:16:55;95764.44;;;16.10;100.00
31346;BME280;21711;49.708;18.568;2023-08-06T06:19:22;95755.31;;;16.11;100.00
31346;BME280;21711;49.708;18.568;2023-08-06T06:21:50;95750.72;;;16.27;100.00
31346;BME280;21711;49.708;18.568;2023-08-06T06:24:17;95752.41;;;16.16;100.00
31346;BME280;21711;49.708;18.568;2023-08-06T06:26:45;95759.72;;;16.03;100.00
31346;BME280;21711;49.708;18.568;2023-08-06T06:29:12;95755.06;;;16.16;100.00
31346;BME280;21711;49.708;18.568;2023-08-06T06:31:40;95764.34;;;16.22;100.00
31346;BME280;21711;49.708;18.568;2023-08-06T06:34:07;95760.72;;;16.30;100.00
31346;BME280;21711;49.708;18.568;2023-08-06T06:36:34;95764.25;;;16.35;100.00
31346;BME280;21711;49.708;18.568;2023-08-06T06:39:02;95775.72;;;16.19;100.00
31346;BME280;21711;49.708;18.568;2023-08-06T06:41:29;95767.72;;;16.19;100.00
31346;BME280;21711;49.708;18.568;2023-08-06T06:44:05;95768.56;;;16.23;100.00
31346;BME280;21711;49.708;18.568;2023-08-06T06:46:33;95764.44;;;16.26;100.00
31346;BME280;21711;49.708;18.568;2023-08-06T06:49:00;95762.47;;;16.07;100.00
31346;BME280;21711;49.708;18.568;2023-08-06T06:51:27;95769.59;;;16.19;100.00
31346;BME280;21711;49.708;18.568;2023-08-06T06:53:55;95753.06;;;16.13;100.00
31346;BME280;21711;49.708;18.568;2023-08-06T06:56:22;95764.53;;;16.13;100.00
31346;BME280;21711;49.708;18.568;2023-08-06T06:58:50;95768.31;;;16.12;100.00
31346;BME280;21711;49.708;18.568;2023-08-06T07:01:17;95755.75;;;16.13;100.00
31346;BME280;21711;49.708;18.568;2023-08-06T07:03:44;95752.25;;;16.09;100.00
31346;BME280;21711;49.708;18.568;2023-08-06T07:06:12;95744.84;;;16.02;100.00
31346;BME280;21711;49.708;18.568;2023-08-06T07:08:39;95744.66;;;16.11;100.00
31346;BME280;21711;49.708;18.568;2023-08-06T07:11:07;95746.97;;;16.12;100.00
31346;BME280;21711;49.708;18.568;2023-08-06T07:13:35;95745.78;;;16.10;100.00
31346;BME280;21711;49.708;18.568;2023-08-06T07:16:02;95752.59;;;16.07;100.00
31346;BME280;21711;49.708;18.568;2023-08-06T07:18:30;95761.50;;;15.83;100.00
31346;BME280;21711;49.708;18.568;2023-08-06T07:20:57;95763.22;;;15.91;100.00
31346;BME280;21711;49.708;18.568;2023-08-06T07:23:26;95758.91;;;15.86;100.00
31346;BME280;21711;49.708;18.568;2023-08-06T07:25:53;95762.69;;;15.85;100.00
31346;BME280;21711;49.708;18.568;2023-08-06T07:28:20;95758.44;;;15.97;100.00
31346;BME280;21711;49.708;18.568;2023-08-06T07:30:49;95764.66;;;15.72;100.00
31346;BME280;21711;49.708;18.568;2023-08-06T07:33:16;95763.28;;;15.62;100.00
31346;BME280;21711;49.708;18.568;2023-08-06T07:35:44;95762.88;;;15.76;100.00
31346;BME280;21711;49.708;18.568;2023-08-06T07:38:11;95753.22;;;15.72;100.00
31346;BME280;21711;49.708;18.568;2023-08-06T07:40:40;95756.69;;;15.72;100.00
31346;BME280;21711;49.708;18.568;2023-08-06T07:43:07;95757.19;;;15.62;100.00
31346;BME280;21711;49.708;18.568;2023-08-06T07:45:35;95757.88;;;15.75;100.00
31346;BME280;21711;49.708;18.568;2023-08-06T07:48:03;95758.47;;;15.68;100.00
31346;BME280;21711;49.708;18.568;2023-08-06T07:50:31;95758.47;;;15.68;100.00
31346;BME280;21711;49.708;18.568;2023-08-06T07:52:59;95757.69;;;15.68;100.00
31346;BME280;21711;49.708;18.568;2023-08-06T07:55:26;95760.81;;;15.86;100.00
31346;BME280;21711;49.708;18.568;2023-08-06T07:57:54;95763.63;;;15.93;100.00
31346;BME280;21711;49.708;18.568;2023-08-06T08:00:21;95761.16;;;15.84;100.00
31346;BME280;21711;49.708;18.568;2023-08-06T08:02:50;95766.91;;;15.86;100.00
31346;BME280;21711;49.708;18.568;2023-08-06T08:05:17;95756.59;;;15.69;100.00
31346;BME280;21711;49.708;18.568;2023-08-06T08:07:45;95758.66;;;15.75;100.00
31346;BME280;21711;49.708;18.568;2023-08-06T08:10:12;95762.09;;;15.76;100.00
31346;BME280;21711;49.708;18.568;2023-08-06T08:12:40;95750.47;;;15.68;100.00
31346;BME280;21711;49.708;18.568;2023-08-06T08:15:08;95746.69;;;15.85;100.00
31346;BME280;21711;49.708;18.568;2023-08-06T08:17:35;95755.56;;;15.73;100.00
31346;BME280;21711;49.708;18.568;2023-08-06T08:20:03;95757.72;;;16.00;100.00
31346;BME280;21711;49.708;18.568;2023-08-06T08:22:30;95748.34;;;15.90;100.00
31346;BME280;21711;49.708;18.568;2023-08-06T08:24:58;95750.44;;;15.97;100.00
31346;BME280;21711;49.708;18.568;2023-08-06T08:27:25;95753.16;;;15.84;100.00
31346;BME280;21711;49.708;18.568;2023-08-06T08:29:53;95758.19;;;15.57;100.00
31346;BME280;21711;49.708;18.568;2023-08-06T08:32:20;95758.38;;;15.64;100.00
31346;BME280;21711;49.708;18.568;2023-08-06T08:34:48;95758.81;;;15.67;100.00
31346;BME280;21711;49.708;18.568;2023-08-06T08:37:15;95757.63;;;15.80;100.00
31346;BME280;21711;49.708;18.568;2023-08-06T08:39:43;95755.22;;;15.91;100.00
31346;BME280;21711;49.708;18.568;2023-08-06T08:42:10;95752.31;;;15.96;100.00
31346;BME280;21711;49.708;18.568;2023-08-06T08:44:38;95746.31;;;15.99;100.00
31346;BME280;21711;49.708;18.568;2023-08-06T08:47:07;95747.91;;;15.88;100.00
31346;BME280;21711;49.708;18.568;2023-08-06T08:49:37;95743.50;;;15.80;100.00
31346;BME280;21711;49.708;18.568;2023-08-06T08:52:06;95740.16;;;15.83;100.00
31346;BME280;21711;49.708;18.568;2023-08-06T08:54:35;95747.59;;;16.06;100.00
31346;BME280;21711;49.708;18.568;2023-08-06T08:57:05;95747.13;;;16.20;100.00
31346;BME280;21711;49.708;18.568;2023-08-06T08:59:35;95747.38;;;16.30;100.00
31346;BME280;21711;49.708;18.568;2023-08-06T09:02:03;95746.09;;;16.40;100.00
31346;BME280;21711;49.708;18.568;2023-08-06T09:04:32;95747.44;;;16.34;100.00
31346;BME280;21711;49.708;18.568;2023-08-06T09:07:02;95744.31;;;16.28;100.00
31346;BME280;21711;49.708;18.568;2023-08-06T09:09:35;95758.31;;;16.41;100.00
31346;BME280;21711;49.708;18.568;2023-08-06T09:12:14;95752.72;;;16.30;100.00
31346;BME280;21711;49.708;18.568;2023-08-06T09:14:42;95752.41;;;16.52;100.00
31346;BME280;21711;49.708;18.568;2023-08-06T09:17:10;95760.97;;;16.41;100.00
31346;BME280;21711;49.708;18.568;2023-08-06T09:19:42;95770.25;;;16.32;100.00
31346;BME280;21711;49.708;18.568;2023-08-06T09:22:14;95766.06;;;16.30;100.00
31346;BME280;21711;49.708;18.568;2023-08-06T09:24:42;95764.16;;;16.31;100.00
31346;BME280;21711;49.708;18.568;2023-08-06T09:27:14;95769.53;;;16.15;100.00
31346;BME280;21711;49.708;18.568;2023-08-06T09:29:44;95757.41;;;16.01;100.00
31346;BME280;21711;49.708;18.568;2023-08-06T09:32:13;95767.53;;;15.96;100.00
31346;BME280;21711;49.708;18.568;2023-08-06T09:34:42;95764.75;;;15.92;100.00
31346;BME280;21711;49.708;18.568;2023-08-06T09:37:10;95769.25;;;16.04;100.00
31346;BME280;21711;49.708;18.568;2023-08-06T09:39:39;95782.78;;;15.95;100.00
31346;BME280;21711;49.708;18.568;2023-08-06T09:42:10;95775.59;;;15.83;100.00
31346;BME280;21711;49.708;18.568;2023-08-06T09:44:40;95783.31;;;15.72;100.00
31346;BME280;21711;49.708;18.568;2023-08-06T09:47:08;95782.88;;;15.86;100.00
31346;BME280;21711;49.708;18.568;2023-08-06T09:52:04;95779.25;;;16.07;100.00
31346;BME280;21711;49.708;18.568;2023-08-06T09:54:32;95785.78;;;15.94;100.00
31346;BME280;21711;49.708;18.568;2023-08-06T09:57:03;95790.59;;;16.04;100.00
31346;BME280;21711;49.708;18.568;2023-08-06T09:59:33;95783.63;;;15.99;100.00
31346;BME280;21711;49.708;18.568;2023-08-06T10:02:01;95782.41;;;16.13;100.00
31346;BME280;21711;49.708;18.568;2023-08-06T10:04:30;95779.56;;;16.22;100.00
31346;BME280;21711;49.708;18.568;2023-08-06T10:07:07;95781.38;;;16.34;100.00
31346;BME280;21711;49.708;18.568;2023-08-06T10:09:35;95785.38;;;16.43;100.00
31346;BME280;21711;49.708;18.568;2023-08-06T10:12:03;95783.97;;;16.14;100.00
31346;BME280;21711;49.708;18.568;2023-08-06T10:14:35;95790.56;;;16.36;100.00
31346;BME280;21711;49.708;18.568;2023-08-06T10:17:04;95796.25;;;16.35;100.00
31346;BME280;21711;49.708;18.568;2023-08-06T10:19:32;95794.69;;;16.50;100.00
31346;BME280;21711;49.708;18.568;2023-08-06T10:22:15;95801.94;;;16.69;100.00
31346;BME280;21711;49.708;18.568;2023-08-06T10:24:58;95796.50;;;16.46;100.00
31346;BME280;21711;49.708;18.568;2023-08-06T10:27:40;95810.09;;;16.56;100.00
31346;BME280;21711;49.708;18.568;2023-08-06T10:30:31;95809.16;;;16.33;100.00
31346;BME280;21711;49.708;18.568;2023-08-06T10:33:03;95815.97;;;16.30;100.00
31346;BME280;21711;49.708;18.568;2023-08-06T10:40:41;95809.59;;;16.19;100.00
31346;BME280;21711;49.708;18.568;2023-08-06T10:43:35;95808.38;;;16.48;100.00
31346;BME280;21711;49.708;18.568;2023-08-06T10:46:10;95818.09;;;16.40;100.00
31346;BME280;21711;49.708;18.568;2023-08-06T10:48:41;95813.97;;;16.43;100.00
31346;BME280;21711;49.708;18.568;2023-08-06T10:51:12;95821.53;;;16.41;100.00
31346;BME280;21711;49.708;18.568;2023-08-06T10:53:49;95818.28;;;16.32;100.00
31346;BME280;21711;49.708;18.568;2023-08-06T10:56:22;95816.66;;;16.27;100.00
31346;BME280;21711;49.708;18.568;2023-08-06T10:58:51;95823.19;;;16.13;100.00
31346;BME280;21711;49.708;18.568;2023-08-06T11:01:19;95830.06;;;16.14;100.00
31346;BME280;21711;49.708;18.568;2023-08-06T11:03:47;95830.84;;;16.15;100.00
31346;BME280;21711;49.708;18.568;2023-08-06T11:06:23;95841.66;;;16.22;100.00
31346;BME280;21711;49.708;18.568;2023-08-06T11:08:55;95839.84;;;16.10;100.00
31346;BME280;21711;49.708;18.568;2023-08-06T11:11:23;95841.50;;;16.15;100.00
31346;BME280;21711;49.708;18.568;2023-08-06T11:13:52;95845.78;;;16.03;100.00
31346;BME280;21711;49.708;18.568;2023-08-06T11:16:22;95841.78;;;16.10;100.00
31346;BME280;21711;49.708;18.568;2023-08-06T11:18:52;95848.31;;;16.12;100.00
31346;BME280;21711;49.708;18.568;2023-08-06T11:21:22;95847.19;;;16.13;100.00
31346;BME280;21711;49.708;18.568;2023-08-06T11:23:52;95859.13;;;16.20;100.00
31346;BME280;21711;49.708;18.568;2023-08-06T11:26:21;95851.84;;;16.33;100.00
31346;BME280;21711;49.708;18.568;2023-08-06T11:28:50;95855.72;;;16.19;100.00
31346;BME280;21711;49.708;18.568;2023-08-06T11:31:22;95864.81;;;16.02;100.00
31346;BME280;21711;49.708;18.568;2023-08-06T11:33:54;95870.59;;;15.91;100.00
31346;BME280;21711;49.708;18.568;2023-08-06T11:36:40;95878.16;;;16.02;100.00
31346;BME280;21711;49.708;18.568;2023-08-06T11:39:07;95887.09;;;16.10;100.00
31346;BME280;21711;49.708;18.568;2023-08-06T11:41:36;95881.22;;;16.04;100.00
31346;BME280;21711;49.708;18.568;2023-08-06T11:44:11;95892.25;;;16.19;100.00
31346;BME280;21711;49.708;18.568;2023-08-06T11:47:04;95890.88;;;16.09;100.00
31346;BME280;21711;49.708;18.568;2023-08-06T11:49:47;95898.72;;;16.17;100.00
31346;BME280;21711;49.708;18.568;2023-08-06T11:52:21;95900.69;;;16.04;100.00
31346;BME280;21711;49.708;18.568;2023-08-06T11:57:30;95899.91;;;16.04;100.00
31346;BME280;21711;49.708;18.568;2023-08-06T12:00:13;95909.63;;;16.12;100.00
31346;BME280;21711;49.708;18.568;2023-08-06T12:02:46;95912.09;;;16.05;100.00
31346;BME280;21711;49.708;18.568;2023-08-06T12:05:31;95905.72;;;15.94;100.00
31346;BME280;21711;49.708;18.568;2023-08-06T12:08:03;95909.59;;;15.96;100.00
31346;BME280;21711;49.708;18.568;2023-08-06T12:10:32;95908.59;;;16.17;100.00
31346;BME280;21711;49.708;18.568;2023-08-06T12:13:00;95907.16;;;16.36;100.00
31346;BME280;21711;49.708;18.568;2023-08-06T12:15:28;95907.94;;;16.52;100.00
31346;BME280;21711;49.708;18.568;2023-08-06T12:17:59;95904.06;;;16.50;100.00
31346;BME280;21711;49.708;18.568;2023-08-06T12:20:26;95898.63;;;16.62;100.00
31346;BME280;21711;49.708;18.568;2023-08-06T12:22:55;95897.69;;;16.70;100.00
31346;BME280;21711;49.708;18.568;2023-08-06T12:25:23;95886.91;;;16.83;100.00
31346;BME280;21711;49.708;18.568;2023-08-06T12:27:51;95883.81;;;16.81;100.00
31346;BME280;21711;49.708;18.568;2023-08-06T12:30:18;95884.16;;;16.79;100.00
31346;BME280;21711;49.708;18.568;2023-08-06T12:32:46;95881.38;;;17.08;100.00
31346;BME280;21711;49.708;18.568;2023-08-06T12:35:14;95881.44;;;17.12;100.00
31346;BME280;21711;49.708;18.568;2023-08-06T12:37:41;95886.56;;;17.56;100.00
31346;BME280;21711;49.708;18.568;2023-08-06T12:40:10;95887.88;;;17.86;100.00
31346;BME280;21711;49.708;18.568;2023-08-06T12:42:58;95893.56;;;18.04;100.00
31346;BME280;21711;49.708;18.568;2023-08-06T12:45:26;95895.38;;;18.00;100.00
31346;BME280;21711;49.708;18.568;2023-08-06T12:47:53;95903.50;;;18.27;100.00
31346;BME280;21711;49.708;18.568;2023-08-06T12:50:21;95902.22;;;18.64;100.00
31346;BME280;21711;49.708;18.568;2023-08-06T12:52:49;95900.72;;;18.43;100.00
31346;BME280;21711;49.708;18.568;2023-08-06T12:55:16;95910.28;;;18.67;100.00
31346;BME280;21711;49.708;18.568;2023-08-06T12:57:43;95916.56;;;18.79;100.00
31346;BME280;21711;49.708;18.568;2023-08-06T13:00:26;95914.19;;;18.74;100.00
31346;BME280;21711;49.708;18.568;2023-08-06T13:02:54;95915.47;;;18.80;100.00
31346;BME280;21711;49.708;18.568;2023-08-06T13:05:22;95920.94;;;19.14;100.00
31346;BME280;21711;49.708;18.568;2023-08-06T13:07:49;95910.13;;;18.80;100.00